Česky Dansk Deutsch English Español Suomi Français Magyar Italiano Nederlands norsk Polski Português svenska Türkçe

 

Het Weer

Ndola (Zambia)

11:00, 16 augustus 2013 (GMT)

NWNNE
WE
SWSSE
Home            
Ndola Lusaka City Airport Kabwe Serenje Lubumbashi-Luano Mansa Lusaka Internationalairport Solwezi Kasempa Petauke Mpika Mfuwe Kawambwa Kariba Kasama Chipata Kolwezi Karoi Choma Kaoma Mwinilunga Kabompo Lundazi

Om een weerknop op uw website of weblog te plaatsen, copieer onderstaande code en plak die in uw pagina. In het eerste vakje staat HTML-code, in het tweede vakje UBB-code.


Add to Google

Details

Wind speed:2 bf, 5 kn, 2.6 m/s, 5.8 miles/h, 9.3 km/h
Wind direction:SSE, 150°
Visibility: 8000 m, 8.0 km, 26247 ft, 5.0 miles
Clouds:Wolkenlos at  ft,  m
Het Weer:moderate smoke
Temperature:29°C, 84°F
Gefühlte Temperatur:27°C, 81°F
Dew-point:3°C, 37°F
Atmospheric pressure:1018 hPa, 763.6 mmHg, 30.06 inHg, 1.005 atm
Relative humidity:18.9 %
METAR:FLND 161100Z 15005KT 8000 FU SKC 29/03 Q1018

Snelkoppelingen

Actuele weersinformatie van de hele wereld. Voeg locaties toe met het plus (+) symbool. Deze snelkoppelingen kunnen worden toegevoegd aan Google.

Lid van de Technetium groep

website free tracking
StatCounter NetStat W3C Validator

24-11-2020 09:14:05
astro.technetium.be money.technetium.be phote.technetium.be tafeltennistafel.technetium.be www.ligfiets.net